Time;durP1;ratioP1;P1;durP2;ratioP2;P2;SDS_P1;SDS_P2;PMS_P1;PMS_P2;Temp;Humidity;BMP_temperature;BMP_pressure;BME280_temperature;BME280_humidity;BME280_pressure;Samples;Min_cycle;Max_cycle;Signal;HPM_P1;HPM_P2
2022/04/10 00:01:31;;;;;;;8.05;2.22;;;;;;;-145.70;100.00;64261.84;5037464;28;20120;-81
2022/04/10 00:03:57;;;;;;;8.07;3.25;;;;;;;-145.70;100.00;64261.84;5037351;28;20492;-81
2022/04/10 00:06:24;;;;;;;7.38;2.90;;;;;;;-145.70;100.00;64261.84;5041323;28;20051;-81
2022/04/10 00:08:49;;;;;;;6.18;2.63;;;;;;;-145.70;100.00;64261.84;5039232;28;20120;-81
2022/04/10 00:11:15;;;;;;;6.95;2.88;;;;;;;-145.70;100.00;64261.84;5041751;28;20167;-80
2022/04/10 00:13:40;;;;;;;7.38;2.70;;;;;;;-145.70;100.00;64261.84;5024218;28;20124;-81
2022/04/10 00:16:08;;;;;;;8.00;2.33;;;;;;;-145.70;100.00;64261.84;5033488;28;20111;-81
2022/04/10 00:18:34;;;;;;;7.35;2.88;;;;;;;-145.70;100.00;64261.84;5033021;28;20045;-81
2022/04/10 00:21:01;;;;;;;11.57;3.95;;;;;;;-145.70;100.00;64261.84;5048210;28;20033;-81
2022/04/10 00:26:48;;;;;;;11.05;3.50;;;;;;;-145.70;100.00;64261.84;5022748;28;20056;-81
2022/04/10 00:29:13;;;;;;;7.05;2.60;;;;;;;-145.70;100.00;64261.84;5029972;28;20396;-81
2022/04/10 00:31:39;;;;;;;8.40;3.60;;;;;;;-145.70;100.00;64261.84;5036598;28;20068;-80
2022/04/10 00:34:04;;;;;;;13.18;3.35;;;;;;;-145.70;100.00;64261.84;5044219;28;20049;-81
2022/04/10 00:36:29;;;;;;;6.72;3.17;;;;;;;-145.70;100.00;64261.84;5051275;28;20047;-81
2022/04/10 00:38:55;;;;;;;7.00;2.88;;;;;;;-145.70;100.00;64261.84;5042876;28;20067;-80
2022/04/10 00:41:20;;;;;;;6.70;2.80;;;;;;;-145.70;100.00;64261.84;5048257;28;20041;-80
2022/04/10 00:44:11;;;;;;;9.02;3.67;;;;;;;-145.70;100.00;64261.84;5031027;28;20713;-80
2022/04/10 00:46:37;;;;;;;9.52;4.03;;;;;;;-145.70;100.00;64261.84;5031513;28;20111;-80
2022/04/10 00:49:04;;;;;;;9.68;4.35;;;;;;;-145.70;100.00;64261.84;5030957;28;20032;-81
2022/04/10 00:51:52;;;;;;;6.45;2.88;;;;;;;-145.70;100.00;64261.84;5048849;28;20033;-81
2022/04/10 00:54:19;;;;;;;9.93;3.78;;;;;;;-145.70;100.00;64261.84;5050553;28;20545;-81
2022/04/10 00:56:45;;;;;;;8.70;3.50;;;;;;;-145.70;100.00;64261.84;5025520;28;20064;-80
2022/04/10 00:59:12;;;;;;;7.40;3.40;;;;;;;-145.70;100.00;64261.84;5042263;28;20508;-79
2022/04/10 01:01:39;;;;;;;10.20;3.85;;;;;;;-145.70;100.00;64261.84;5040780;28;20052;-80
2022/04/10 01:04:05;;;;;;;10.15;4.45;;;;;;;-145.70;100.00;64261.84;5037603;28;20053;-80
2022/04/10 01:06:35;;;;;;;10.70;4.15;;;;;;;-145.70;100.00;64261.84;5037575;28;20049;-80
2022/04/10 01:09:02;;;;;;;10.25;2.53;;;;;;;-145.70;100.00;64261.84;5033180;28;20065;-80
2022/04/10 01:11:28;;;;;;;5.57;2.40;;;;;;;-145.70;100.00;64261.84;5044170;28;20048;-80
2022/04/10 01:13:54;;;;;;;9.73;3.63;;;;;;;-145.70;100.00;64261.84;5033670;28;20090;-80
2022/04/10 01:16:22;;;;;;;10.52;2.92;;;;;;;-145.70;100.00;64261.84;5032422;28;20044;-80
2022/04/10 01:18:49;;;;;;;5.65;2.78;;;;;;;-145.70;100.00;64261.84;5023816;28;20045;-80
2022/04/10 01:21:21;;;;;;;5.40;2.63;;;;;;;-145.70;100.00;64261.84;5042754;28;20111;-80
2022/04/10 01:23:47;;;;;;;7.68;2.70;;;;;;;-145.70;100.00;64261.84;5042303;28;20524;-80
2022/04/10 01:26:13;;;;;;;8.27;3.42;;;;;;;-145.70;100.00;64261.84;5027067;28;20045;-80
2022/04/10 01:29:04;;;;;;;10.40;3.55;;;;;;;-145.70;100.00;64261.84;5044354;28;20070;-80
2022/04/10 01:31:32;;;;;;;13.82;4.47;;;;;;;-145.70;100.00;64261.84;5040420;28;20072;-80
2022/04/10 01:34:01;;;;;;;8.90;2.70;;;;;;;-145.70;100.00;64261.84;5031467;28;20057;-80
2022/04/10 01:36:29;;;;;;;10.67;3.40;;;;;;;-145.70;100.00;64261.84;5034868;28;20576;-81
2022/04/10 01:38:56;;;;;;;10.90;3.70;;;;;;;-145.70;100.00;64261.84;5031274;28;20026;-81
2022/04/10 01:41:22;;;;;;;10.52;3.50;;;;;;;-145.70;100.00;64261.84;5039465;28;20181;-81
2022/04/10 01:43:49;;;;;;;9.02;3.95;;;;;;;-145.70;100.00;64261.84;5031173;28;20072;-81
2022/04/10 01:46:15;;;;;;;14.57;4.10;;;;;;;-145.70;100.00;64261.84;5026500;28;20130;-80
2022/04/10 01:48:41;;;;;;;10.73;3.42;;;;;;;-145.70;100.00;64261.84;5040692;28;20037;-80
2022/04/10 01:51:07;;;;;;;7.55;4.00;;;;;;;-145.70;100.00;64261.84;5041016;28;20041;-80
2022/04/10 01:53:34;;;;;;;10.07;3.08;;;;;;;-145.70;100.00;64261.84;5026616;28;23343;-81
2022/04/10 01:56:00;;;;;;;6.82;3.28;;;;;;;-145.70;100.00;64261.84;5039152;28;20085;-80
2022/04/10 01:58:25;;;;;;;7.80;3.85;;;;;;;-145.70;100.00;64261.84;5027302;28;20581;-80
2022/04/10 02:00:50;;;;;;;12.07;4.15;;;;;;;-145.70;100.00;64261.84;5040231;28;20033;-80
2022/04/10 02:03:16;;;;;;;9.68;3.47;;;;;;;-145.70;100.00;64261.84;5039612;28;20099;-81
2022/04/10 02:05:41;;;;;;;13.82;3.72;;;;;;;-145.70;100.00;64261.84;5026702;28;20495;-80
2022/04/10 02:08:06;;;;;;;12.32;4.60;;;;;;;-145.70;100.00;64261.84;5028853;28;20039;-80
2022/04/10 02:10:32;;;;;;;11.70;4.05;;;;;;;-145.70;100.00;64261.84;5039070;28;20049;-80
2022/04/10 02:12:57;;;;;;;12.90;5.32;;;;;;;-145.70;100.00;64261.84;5022257;28;20052;-81
2022/04/10 02:15:22;;;;;;;14.20;4.65;;;;;;;-145.70;100.00;64261.84;5040571;28;20055;-80
2022/04/10 02:17:48;;;;;;;12.43;4.53;;;;;;;-145.70;100.00;64261.84;5041717;28;20056;-81
2022/04/10 02:20:13;;;;;;;11.63;4.22;;;;;;;-145.70;100.00;64261.84;5042199;28;20048;-81
2022/04/10 02:22:38;;;;;;;14.43;4.75;;;;;;;-145.70;100.00;64261.84;5043151;28;20045;-81
2022/04/10 02:25:04;;;;;;;12.52;5.20;;;;;;;-145.70;100.00;64261.84;5040258;28;20059;-80
2022/04/10 02:27:29;;;;;;;14.30;3.80;;;;;;;-145.70;100.00;64261.84;5043285;28;20049;-80
2022/04/10 02:29:55;;;;;;;10.40;5.07;;;;;;;-145.70;100.00;64261.84;5034434;28;20042;-80
2022/04/10 02:32:20;;;;;;;13.48;4.45;;;;;;;-145.70;100.00;64261.84;5043129;28;20116;-81
2022/04/10 02:34:45;;;;;;;8.93;3.50;;;;;;;-145.70;100.00;64261.84;5035184;28;20052;-81
2022/04/10 02:37:11;;;;;;;14.80;4.78;;;;;;;-145.70;100.00;64261.84;5025530;28;20061;-81
2022/04/10 02:39:36;;;;;;;10.15;3.20;;;;;;;-145.70;100.00;64261.84;5026886;28;20123;-80
2022/04/10 02:42:02;;;;;;;11.45;3.50;;;;;;;-145.70;100.00;64261.84;5037793;28;20045;-81
2022/04/10 02:44:27;;;;;;;9.77;4.07;;;;;;;-145.70;100.00;64261.84;5042632;28;20052;-81
2022/04/10 02:46:53;;;;;;;11.65;4.82;;;;;;;-145.70;100.00;64261.84;5032630;28;20048;-81
2022/04/10 02:49:18;;;;;;;13.30;4.53;;;;;;;-145.70;100.00;64261.84;5044158;28;20044;-81
2022/04/10 02:51:46;;;;;;;11.43;5.53;;;;;;;-145.70;100.00;64261.84;5043386;28;20044;-81
2022/04/10 02:54:11;;;;;;;11.63;3.25;;;;;;;-145.70;100.00;64261.84;5023554;28;20076;-81
2022/04/10 02:56:37;;;;;;;12.48;4.18;;;;;;;-145.70;100.00;64261.84;5024446;28;20083;-81
2022/04/10 02:59:02;;;;;;;8.65;3.45;;;;;;;-145.70;100.00;64261.84;5029672;28;20060;-81
2022/04/10 03:01:27;;;;;;;9.43;3.90;;;;;;;-145.70;100.00;64261.84;5029524;28;20048;-80
2022/04/10 03:03:53;;;;;;;10.50;4.57;;;;;;;-145.70;100.00;64261.84;5043904;28;20041;-81
2022/04/10 03:06:19;;;;;;;11.77;4.88;;;;;;;-145.70;100.00;64261.84;5023596;28;20124;-81
2022/04/10 03:08:44;;;;;;;11.32;4.53;;;;;;;-145.70;100.00;64261.84;5039703;28;20123;-81
2022/04/10 03:11:09;;;;;;;13.98;3.72;;;;;;;-145.70;100.00;64261.84;5019942;28;20480;-80
2022/04/10 03:13:35;;;;;;;10.38;4.70;;;;;;;-145.70;100.00;64261.84;5026257;28;20041;-80
2022/04/10 03:16:00;;;;;;;15.27;5.35;;;;;;;-145.70;100.00;64261.84;5028803;28;20523;-80
2022/04/10 03:18:26;;;;;;;9.65;4.72;;;;;;;-145.70;100.00;64261.84;5029842;28;20042;-80
2022/04/10 03:20:51;;;;;;;10.20;4.35;;;;;;;-145.70;100.00;64261.84;5040137;28;20051;-80
2022/04/10 03:23:17;;;;;;;7.68;3.83;;;;;;;-145.70;100.00;64261.84;5043108;28;20079;-81
2022/04/10 03:25:43;;;;;;;10.43;4.13;;;;;;;-145.70;100.00;64261.84;5026836;28;20467;-80
2022/04/10 03:28:08;;;;;;;11.45;4.95;;;;;;;-145.70;100.00;64261.84;5046960;28;20037;-81
2022/04/10 03:30:34;;;;;;;11.77;4.63;;;;;;;-145.70;100.00;64261.84;5045954;28;20052;-81
2022/04/10 03:32:59;;;;;;;11.43;4.03;;;;;;;-145.70;100.00;64261.84;5040060;28;20044;-81
2022/04/10 03:35:25;;;;;;;12.02;3.88;;;;;;;-145.70;100.00;64261.84;5021820;28;20848;-80
2022/04/10 03:37:50;;;;;;;9.95;2.90;;;;;;;-145.70;100.00;64261.84;5031450;28;20032;-81
2022/04/10 03:40:15;;;;;;;8.55;3.20;;;;;;;-145.70;100.00;64261.84;5041885;28;20652;-81
2022/04/10 03:42:41;;;;;;;5.75;3.20;;;;;;;-145.70;100.00;64261.84;5040776;28;20487;-81
2022/04/10 03:45:08;;;;;;;12.68;3.97;;;;;;;-145.70;100.00;64261.84;5038123;28;20090;-80
2022/04/10 03:47:33;;;;;;;10.40;4.43;;;;;;;-145.70;100.00;64261.84;5024264;28;20513;-81
2022/04/10 03:49:59;;;;;;;7.55;3.00;;;;;;;-145.70;100.00;64261.84;5041997;28;20192;-80
2022/04/10 03:52:24;;;;;;;12.52;5.20;;;;;;;-145.70;100.00;64261.84;5043443;28;20045;-81
2022/04/10 03:54:50;;;;;;;13.63;5.53;;;;;;;-145.70;100.00;64261.84;5030105;28;20052;-81
2022/04/10 03:57:15;;;;;;;10.60;3.90;;;;;;;-145.70;100.00;64261.84;5046933;28;20041;-81
2022/04/10 03:59:40;;;;;;;9.55;3.70;;;;;;;-145.70;100.00;64261.84;5059782;28;20054;-81
2022/04/10 04:02:06;;;;;;;11.50;4.35;;;;;;;-145.70;100.00;64261.84;5050515;28;20033;-81
2022/04/10 04:04:31;;;;;;;14.23;4.18;;;;;;;-145.70;100.00;64261.84;5051270;28;20049;-80
2022/04/10 04:06:57;;;;;;;11.18;4.57;;;;;;;-145.70;100.00;64261.84;5048592;28;20050;-80
2022/04/10 04:09:22;;;;;;;11.75;4.32;;;;;;;-145.70;100.00;64261.84;5043228;28;20060;-81
2022/04/10 04:11:47;;;;;;;12.48;4.70;;;;;;;-145.70;100.00;64261.84;5050542;28;20507;-81
2022/04/10 04:14:13;;;;;;;11.50;4.88;;;;;;;-145.70;100.00;64261.84;5023401;28;20087;-81
2022/04/10 04:16:39;;;;;;;10.90;4.18;;;;;;;-145.70;100.00;64261.84;5042576;28;20069;-81
2022/04/10 04:19:04;;;;;;;14.15;4.35;;;;;;;-145.70;100.00;64261.84;5048587;28;20877;-81
2022/04/10 04:21:30;;;;;;;9.25;3.92;;;;;;;-145.70;100.00;64261.84;5047134;28;20076;-81
2022/04/10 04:23:55;;;;;;;11.57;4.15;;;;;;;-145.70;100.00;64261.84;5045880;28;20033;-81
2022/04/10 04:26:20;;;;;;;9.57;4.97;;;;;;;-145.70;100.00;64261.84;5027522;28;20095;-81
2022/04/10 04:28:46;;;;;;;9.68;4.45;;;;;;;-145.70;100.00;64261.84;5046485;28;20037;-81
2022/04/10 04:31:11;;;;;;;16.17;4.47;;;;;;;-145.70;100.00;64261.84;5044438;28;20052;-81
2022/04/10 04:33:36;;;;;;;15.85;4.20;;;;;;;-145.70;100.00;64261.84;5026058;28;20045;-80
2022/04/10 04:36:02;;;;;;;11.18;5.88;;;;;;;-145.70;100.00;64261.84;5044750;28;20061;-80
2022/04/10 04:38:27;;;;;;;14.23;5.20;;;;;;;-145.70;100.00;64261.84;5037610;28;20045;-80
2022/04/10 04:40:52;;;;;;;6.35;3.05;;;;;;;-145.70;100.00;64261.84;5039917;28;20097;-80
2022/04/10 04:43:18;;;;;;;12.20;4.95;;;;;;;-145.70;100.00;64261.84;5025831;28;20039;-81
2022/04/10 04:45:43;;;;;;;14.40;5.18;;;;;;;-145.70;100.00;64261.84;5046758;28;20041;-82
2022/04/10 04:48:08;;;;;;;13.20;6.30;;;;;;;-145.70;100.00;64261.84;5029740;28;20037;-82
2022/04/10 04:50:34;;;;;;;10.43;4.65;;;;;;;-145.70;100.00;64261.84;5046621;28;20045;-82
2022/04/10 04:52:59;;;;;;;17.50;10.10;;;;;;;-145.70;100.00;64261.84;5049573;28;20132;-82
2022/04/10 04:55:25;;;;;;;16.20;6.05;;;;;;;-145.70;100.00;64261.84;5042994;28;20045;-82
2022/04/10 04:57:50;;;;;;;12.90;5.47;;;;;;;-145.70;100.00;64261.84;5046646;28;20044;-81
2022/04/10 05:00:16;;;;;;;15.18;6.13;;;;;;;-145.70;100.00;64261.84;5039088;28;20473;-82
2022/04/10 05:02:41;;;;;;;12.75;4.68;;;;;;;-145.70;100.00;64261.84;5039611;28;20056;-81
2022/04/10 05:05:07;;;;;;;12.57;5.78;;;;;;;-145.70;100.00;64261.84;5023301;28;20052;-82
2022/04/10 05:07:33;;;;;;;15.55;7.30;;;;;;;-145.70;100.00;64261.84;5041343;28;20044;-82
2022/04/10 05:09:58;;;;;;;11.07;5.05;;;;;;;-145.70;100.00;64261.84;5025790;28;20029;-82
2022/04/10 05:12:24;;;;;;;17.35;8.05;;;;;;;-145.70;100.00;64261.84;5043976;28;20106;-82
2022/04/10 05:14:49;;;;;;;14.05;7.97;;;;;;;-145.70;100.00;64261.84;5050191;28;20044;-82
2022/04/10 05:17:14;;;;;;;16.88;7.68;;;;;;;-145.70;100.00;64261.84;5049570;28;20060;-82
2022/04/10 05:19:40;;;;;;;14.55;6.70;;;;;;;-145.70;100.00;64261.84;5047472;28;20045;-82
2022/04/10 05:22:05;;;;;;;14.80;7.20;;;;;;;-145.70;100.00;64261.84;5049448;28;20090;-82
2022/04/10 05:24:30;;;;;;;17.15;5.85;;;;;;;-145.70;100.00;64261.84;5049716;28;20076;-82
2022/04/10 05:26:56;;;;;;;12.65;6.47;;;;;;;-145.70;100.00;64261.84;5049241;28;20119;-82
2022/04/10 05:29:21;;;;;;;16.00;7.97;;;;;;;-145.70;100.00;64261.84;5048839;28;20504;-81
2022/04/10 05:31:47;;;;;;;14.43;5.85;;;;;;;-145.70;100.00;64261.84;5047160;28;20059;-81
2022/04/10 05:34:12;;;;;;;13.43;6.18;;;;;;;-145.70;100.00;64261.84;5047422;28;20973;-81
2022/04/10 05:36:37;;;;;;;15.27;7.05;;;;;;;-145.70;100.00;64261.84;5045415;28;20124;-81
2022/04/10 05:39:03;;;;;;;13.25;5.85;;;;;;;-145.70;100.00;64261.84;5044829;28;20049;-81
2022/04/10 05:41:28;;;;;;;17.73;7.32;;;;;;;-145.70;100.00;64261.84;5044304;28;20422;-80
2022/04/10 05:43:53;;;;;;;12.77;5.90;;;;;;;-145.70;100.00;64261.84;5043137;28;20393;-81
2022/04/10 05:46:19;;;;;;;13.43;5.90;;;;;;;-145.70;100.00;64261.84;5046253;28;20778;-82
2022/04/10 05:48:47;;;;;;;12.98;6.35;;;;;;;-145.70;100.00;64261.84;5038968;28;20041;-81
2022/04/10 05:51:12;;;;;;;14.85;5.38;;;;;;;-145.70;100.00;64261.84;5043806;28;20080;-81
2022/04/10 05:53:37;;;;;;;14.35;6.40;;;;;;;-145.70;100.00;64261.84;5045598;28;20056;-81
2022/04/10 05:56:03;;;;;;;13.57;5.05;;;;;;;-145.70;100.00;64261.84;5028416;28;20453;-81
2022/04/10 05:58:28;;;;;;;11.95;5.20;;;;;;;-145.70;100.00;64261.84;5049835;28;20041;-80
2022/04/10 06:00:55;;;;;;;10.98;4.40;;;;;;;-145.70;100.00;64261.84;5047874;28;20033;-81
2022/04/10 06:03:21;;;;;;;7.70;4.20;;;;;;;-145.70;100.00;64261.84;5034185;28;20037;-81
2022/04/10 06:05:46;;;;;;;11.38;4.25;;;;;;;-145.70;100.00;64261.84;5027762;28;20037;-81
2022/04/10 06:08:12;;;;;;;9.95;4.85;;;;;;;-145.70;100.00;64261.84;5030552;28;20489;-81
2022/04/10 06:10:37;;;;;;;14.55;4.75;;;;;;;-145.70;100.00;64261.84;5047869;28;20033;-81
2022/04/10 06:13:07;;;;;;;8.88;3.47;;;;;;;-145.70;100.00;64261.84;5033212;28;20041;-81
2022/04/10 06:15:32;;;;;;;13.63;6.03;;;;;;;-145.70;100.00;64261.84;5027691;28;20044;-80
2022/04/10 06:17:57;;;;;;;8.25;4.03;;;;;;;-145.70;100.00;64261.84;5048938;28;20061;-81
2022/04/10 06:20:23;;;;;;;11.35;3.72;;;;;;;-145.70;100.00;64261.84;5028576;28;20060;-81
2022/04/10 06:22:48;;;;;;;10.93;4.95;;;;;;;-145.70;100.00;64261.84;5043586;28;20048;-81
2022/04/10 06:25:13;;;;;;;12.23;5.32;;;;;;;-145.70;100.00;64261.84;5026206;28;20132;-81
2022/04/10 06:27:39;;;;;;;10.52;4.68;;;;;;;-145.70;100.00;64261.84;5045529;28;20116;-81
2022/04/10 06:30:04;;;;;;;11.52;4.22;;;;;;;-145.70;100.00;64261.84;5045204;28;20041;-81
2022/04/10 06:32:30;;;;;;;8.02;3.92;;;;;;;-145.70;100.00;64261.84;5042315;28;20884;-82
2022/04/10 06:34:55;;;;;;;11.75;4.93;;;;;;;-145.70;100.00;64261.84;5045510;28;20526;-81
2022/04/10 06:37:20;;;;;;;12.50;5.28;;;;;;;-145.70;100.00;64261.84;5028862;28;20044;-81
2022/04/10 06:39:46;;;;;;;11.13;4.63;;;;;;;-145.70;100.00;64261.84;5039396;28;20033;-81
2022/04/10 06:42:11;;;;;;;9.90;4.82;;;;;;;-145.70;100.00;64261.84;5036189;28;20034;-81
2022/04/10 06:44:37;;;;;;;7.75;3.33;;;;;;;-145.70;100.00;64261.84;5032408;28;20407;-82
2022/04/10 06:47:03;;;;;;;9.05;3.95;;;;;;;-145.70;100.00;64261.84;5040169;28;20124;-82
2022/04/10 06:49:28;;;;;;;10.98;5.60;;;;;;;-145.70;100.00;64261.84;5043739;28;20045;-83
2022/04/10 06:51:53;;;;;;;10.23;3.53;;;;;;;-145.70;100.00;64261.84;5014069;28;20699;-82
2022/04/10 06:54:20;;;;;;;12.57;4.75;;;;;;;-145.70;100.00;64261.84;5038230;28;20052;-82
2022/04/10 06:56:45;;;;;;;15.57;6.18;;;;;;;-145.70;100.00;64261.84;5028250;28;20107;-82
2022/04/10 06:59:11;;;;;;;8.18;4.97;;;;;;;-145.70;100.00;64261.84;5025747;28;20033;-83
2022/04/10 07:01:36;;;;;;;11.02;5.57;;;;;;;-145.70;100.00;64261.84;5048045;28;20048;-83
2022/04/10 07:04:03;;;;;;;10.10;5.88;;;;;;;-145.70;100.00;64261.84;5042621;28;20129;-83
2022/04/10 07:06:28;;;;;;;10.60;4.50;;;;;;;-145.70;100.00;64261.84;5025049;28;20080;-83
2022/04/10 07:08:54;;;;;;;8.15;4.40;;;;;;;-145.70;100.00;64261.84;5029805;28;20071;-83
2022/04/10 07:11:20;;;;;;;11.98;5.20;;;;;;;-145.70;100.00;64261.84;5035269;28;20056;-83
2022/04/10 07:13:45;;;;;;;13.60;4.63;;;;;;;-145.70;100.00;64261.84;5020780;28;20133;-83
2022/04/10 07:16:11;;;;;;;12.32;5.13;;;;;;;-145.70;100.00;64261.84;5018587;28;20060;-83
2022/04/10 07:18:38;;;;;;;10.18;4.28;;;;;;;-145.70;100.00;64261.84;5031049;28;20049;-83
2022/04/10 07:21:04;;;;;;;11.43;4.80;;;;;;;-145.70;100.00;64261.84;5024336;28;20045;-83
2022/04/10 07:23:42;;;;;;;9.00;4.30;;;;;;;-145.70;100.00;64261.84;5038427;28;20502;-83
2022/04/10 07:26:08;;;;;;;11.73;4.53;;;;;;;-145.70;100.00;64261.84;5039333;28;20041;-83
2022/04/10 07:28:34;;;;;;;10.63;5.05;;;;;;;-145.70;100.00;64261.84;5024242;28;20091;-83
2022/04/10 07:31:00;;;;;;;8.75;3.67;;;;;;;-145.70;100.00;64261.84;5025518;28;20504;-83
2022/04/10 07:33:26;;;;;;;9.10;3.22;;;;;;;-145.70;100.00;64261.84;5024207;28;20033;-83
2022/04/10 07:35:51;;;;;;;11.38;3.67;;;;;;;-145.70;100.00;64261.84;5038969;28;20048;-83
2022/04/10 07:38:17;;;;;;;9.30;4.22;;;;;;;-145.70;100.00;64261.84;5039917;28;20408;-83
2022/04/10 07:40:43;;;;;;;10.10;4.60;;;;;;;-145.70;100.00;64261.84;5043369;28;20064;-83
2022/04/10 07:43:09;;;;;;;7.75;3.55;;;;;;;-145.70;100.00;64261.84;5037843;28;20040;-83
2022/04/10 07:48:18;;;;;;;5.85;2.83;;;;;;;-145.70;100.00;64261.84;5041690;28;20048;-82
2022/04/10 07:50:43;;;;;;;13.30;4.40;;;;;;;-145.70;100.00;64261.84;5044262;28;20404;-83
2022/04/10 07:53:09;;;;;;;7.90;3.03;;;;;;;-145.70;100.00;64261.84;5045843;28;20057;-83
2022/04/10 07:55:35;;;;;;;12.05;4.40;;;;;;;-145.70;100.00;64261.84;5025063;28;20045;-83
2022/04/10 07:58:00;;;;;;;12.18;5.90;;;;;;;-145.70;100.00;64261.84;5023878;28;20672;-83
2022/04/10 08:00:31;;;;;;;7.43;3.50;;;;;;;-145.70;100.00;64261.84;5039975;28;20393;-83
2022/04/10 08:02:57;;;;;;;9.30;3.85;;;;;;;-145.70;100.00;64261.84;5042860;28;20117;-83
2022/04/10 08:05:22;;;;;;;8.40;3.03;;;;;;;-145.70;100.00;64261.84;5023697;28;20049;-83
2022/04/10 08:07:48;;;;;;;12.32;3.90;;;;;;;-145.70;100.00;64261.84;5042351;28;20059;-83
2022/04/10 08:10:14;;;;;;;6.85;3.03;;;;;;;-145.70;100.00;64261.84;5041163;28;20057;-83
2022/04/10 08:12:41;;;;;;;9.63;4.10;;;;;;;-145.70;100.00;64261.84;5042201;28;20044;-82
2022/04/10 08:15:07;;;;;;;9.85;3.55;;;;;;;-145.70;100.00;64261.84;5040999;28;20041;-82
2022/04/10 08:17:33;;;;;;;10.18;3.00;;;;;;;-145.70;100.00;64261.84;5029593;28;20063;-82
2022/04/10 08:19:58;;;;;;;9.50;2.92;;;;;;;-145.70;100.00;64261.84;5025786;28;20099;-83
2022/04/10 08:22:25;;;;;;;11.30;4.53;;;;;;;-145.70;100.00;64261.84;5046309;28;20492;-82
2022/04/10 08:24:50;;;;;;;7.80;2.78;;;;;;;-145.70;100.00;64261.84;5026501;28;20037;-82
2022/04/10 08:27:15;;;;;;;12.23;4.07;;;;;;;-145.70;100.00;64261.84;5023702;28;20044;-82
2022/04/10 08:29:41;;;;;;;8.98;3.90;;;;;;;-145.70;100.00;64261.84;5037801;28;20064;-82
2022/04/10 08:32:07;;;;;;;7.38;3.78;;;;;;;-145.70;100.00;64261.84;5038413;28;20098;-82
2022/04/10 08:34:32;;;;;;;5.10;2.60;;;;;;;-145.70;100.00;64261.84;5040440;28;20262;-82
2022/04/10 08:37:03;;;;;;;10.05;3.72;;;;;;;-145.70;100.00;64261.84;5039950;28;20087;-82
2022/04/10 08:39:29;;;;;;;7.10;2.83;;;;;;;-145.70;100.00;64261.84;5025172;28;20159;-83
2022/04/10 08:42:00;;;;;;;7.57;2.60;;;;;;;-145.70;100.00;64261.84;5040306;28;20483;-83
2022/04/10 08:44:27;;;;;;;5.95;2.08;;;;;;;-145.70;100.00;64261.84;5041393;28;20045;-83
2022/04/10 08:46:52;;;;;;;5.13;2.05;;;;;;;-145.70;100.00;64261.84;5028934;28;20073;-83
2022/04/10 08:49:20;;;;;;;6.85;2.20;;;;;;;-145.70;100.00;64261.84;5053061;22;20073;-90
2022/04/10 08:51:46;;;;;;;6.20;2.58;;;;;;;-145.70;100.00;64261.84;5038399;28;20184;-91
2022/04/10 08:54:13;;;;;;;7.78;2.40;;;;;;;-145.70;100.00;64261.84;5030365;28;20082;-89
2022/04/10 08:56:38;;;;;;;6.53;2.47;;;;;;;-145.70;100.00;64261.84;5038107;28;20061;-90
2022/04/10 08:59:04;;;;;;;5.38;1.88;;;;;;;-145.70;100.00;64261.84;5042404;28;20084;-89
2022/04/10 09:01:29;;;;;;;7.30;2.67;;;;;;;-145.70;100.00;64261.84;5043915;28;20040;-90
2022/04/10 09:03:54;;;;;;;5.93;2.60;;;;;;;-145.70;100.00;64261.84;5033221;28;20041;-89
2022/04/10 09:06:20;;;;;;;7.72;2.53;;;;;;;-145.70;100.00;64261.84;5032870;28;20037;-90
2022/04/10 09:08:46;;;;;;;6.70;2.40;;;;;;;-145.70;100.00;64261.84;5028666;28;20102;-90
2022/04/10 09:11:12;;;;;;;7.32;2.40;;;;;;;-145.70;100.00;64261.84;5030201;28;20045;-91
2022/04/10 09:13:43;;;;;;;3.63;1.67;;;;;;;-145.70;100.00;64261.84;5049090;28;20045;-89
2022/04/10 09:16:10;;;;;;;5.40;2.20;;;;;;;-145.70;100.00;64261.84;5027797;28;20411;-91
2022/04/10 09:18:46;;;;;;;4.68;2.17;;;;;;;-145.70;100.00;64261.84;5046929;28;20041;-90
2022/04/10 09:21:12;;;;;;;7.05;2.22;;;;;;;-145.70;100.00;64261.84;5045135;28;20080;-90
2022/04/10 09:23:37;;;;;;;6.57;2.30;;;;;;;-145.70;100.00;64261.84;5018833;28;20128;-91
2022/04/10 09:26:02;;;;;;;9.70;2.63;;;;;;;-145.70;100.00;64261.84;5023555;28;20065;-90
2022/04/10 09:28:46;;;;;;;5.20;1.63;;;;;;;-145.70;100.00;64261.84;5043422;28;20072;-90
2022/04/10 09:31:35;;;;;;;5.55;2.05;;;;;;;-145.70;100.00;64261.84;5038112;28;20044;-89
2022/04/10 09:34:08;;;;;;;5.40;2.40;;;;;;;-145.70;100.00;64261.84;5006999;28;20069;-91
2022/04/10 09:36:35;;;;;;;6.57;2.15;;;;;;;-145.70;100.00;64261.84;5030211;28;20053;-91
2022/04/10 09:39:03;;;;;;;5.80;1.70;;;;;;;-145.70;100.00;64261.84;5042908;28;20132;-91
2022/04/10 09:41:28;;;;;;;7.25;1.80;;;;;;;-145.70;100.00;64261.84;5025468;28;20106;-91
2022/04/10 09:43:58;;;;;;;4.20;1.67;;;;;;;-145.70;100.00;64261.84;5043233;28;20671;-91
2022/04/10 09:46:23;;;;;;;7.50;1.80;;;;;;;-145.70;100.00;64261.84;5041816;28;20446;-90
2022/04/10 09:48:49;;;;;;;3.20;1.20;;;;;;;-145.70;100.00;64261.84;5039053;28;20041;-91
2022/04/10 09:51:14;;;;;;;4.43;1.40;;;;;;;-145.70;100.00;64261.84;5029459;28;20047;-92
2022/04/10 09:53:40;;;;;;;6.80;1.80;;;;;;;-145.70;100.00;64261.84;5039644;28;20133;-90
2022/04/10 09:56:07;;;;;;;4.53;1.20;;;;;;;-145.70;100.00;64261.84;5021488;28;20072;-91
2022/04/10 09:58:34;;;;;;;6.95;1.85;;;;;;;-145.70;100.00;64261.84;5034047;28;20052;-91
2022/04/10 10:01:00;;;;;;;6.28;1.63;;;;;;;-145.70;100.00;64261.84;5020906;28;20094;-91
2022/04/10 10:03:30;;;;;;;4.55;1.52;;;;;;;-145.70;100.00;64261.84;5037963;28;20424;-91
2022/04/10 10:05:57;;;;;;;5.82;2.00;;;;;;;-145.70;100.00;64261.84;5025350;28;20037;-90
2022/04/10 10:08:24;;;;;;;4.10;1.20;;;;;;;-145.70;100.00;64261.84;5024762;28;20037;-90
2022/04/10 10:10:50;;;;;;;4.10;1.60;;;;;;;-145.70;100.00;64261.84;5043126;28;20041;-91
2022/04/10 10:13:16;;;;;;;4.65;1.52;;;;;;;-145.70;100.00;64261.84;5037593;28;20045;-91
2022/04/10 10:15:43;;;;;;;4.60;1.77;;;;;;;-145.70;100.00;64261.84;5036374;28;21099;-91
2022/04/10 10:18:11;;;;;;;6.03;1.40;;;;;;;-145.70;100.00;64261.84;5031431;28;20547;-92
2022/04/10 10:20:38;;;;;;;4.70;1.05;;;;;;;-145.70;100.00;64261.84;5030277;28;20029;-90
2022/04/10 10:23:08;;;;;;;3.65;1.20;;;;;;;-145.70;100.00;64261.84;5047841;28;20116;-90
2022/04/10 10:25:36;;;;;;;8.63;1.40;;;;;;;-145.70;100.00;64261.84;5049270;28;20037;-91
2022/04/10 10:28:32;;;;;;;6.40;1.63;;;;;;;-145.70;100.00;64261.84;5017839;28;20045;-91
2022/04/10 10:31:23;;;;;;;4.03;1.50;;;;;;;-145.70;100.00;64261.84;5040263;28;20045;-91
2022/04/10 10:33:58;;;;;;;4.20;1.40;;;;;;;-145.70;100.00;64261.84;5042171;28;20041;-91
2022/04/10 10:36:26;;;;;;;4.75;1.60;;;;;;;-145.70;100.00;64261.84;5027698;28;20091;-91
2022/04/10 10:38:53;;;;;;;3.10;1.30;;;;;;;-145.70;100.00;64261.84;5029396;28;20564;-91
2022/04/10 10:41:18;;;;;;;8.80;2.88;;;;;;;-145.70;100.00;64261.84;5025435;28;20559;-91
2022/04/10 10:43:45;;;;;;;5.68;2.47;;;;;;;-145.70;100.00;64261.84;5039493;28;20057;-91
2022/04/10 10:46:23;;;;;;;10.05;5.93;;;;;;;-145.70;100.00;64261.84;5045162;28;20049;-91
2022/04/10 10:48:50;;;;;;;7.38;4.85;;;;;;;-145.70;100.00;64261.84;5024788;28;20602;-91
2022/04/10 10:51:15;;;;;;;26.85;18.45;;;;;;;-145.70;100.00;64261.84;5045213;28;20041;-92
2022/04/10 10:53:44;;;;;;;11.27;5.47;;;;;;;-145.70;100.00;64261.84;5039779;28;20103;-91
2022/04/10 10:56:19;;;;;;;7.13;1.90;;;;;;;-145.70;100.00;64261.84;5026325;28;20107;-91
2022/04/10 10:58:47;;;;;;;4.50;1.55;;;;;;;-145.70;100.00;64261.84;5028867;28;20111;-91
2022/04/10 11:01:23;;;;;;;4.72;1.80;;;;;;;-145.70;100.00;64261.84;5026373;28;20045;-91
2022/04/10 11:04:00;;;;;;;8.55;1.63;;;;;;;-145.70;100.00;64261.84;5025503;28;20036;-91
2022/04/10 11:06:41;;;;;;;4.30;1.40;;;;;;;-145.70;100.00;64261.84;5031382;28;20056;-91
2022/04/10 11:09:30;;;;;;;5.07;2.40;;;;;;;-145.70;100.00;64261.84;5042831;28;20392;-91